createdAt,value
2023-04-02T00:00:11.350Z,82.02
2023-04-02T00:03:22.441Z,82.03
2023-04-02T00:06:33.329Z,82.15
2023-04-02T00:09:37.349Z,82.28
2023-04-02T00:12:40.111Z,82.72
2023-04-02T00:15:45.532Z,83.01
2023-04-02T00:18:55.669Z,83.63
2023-04-02T00:21:59.395Z,83.94
2023-04-02T00:25:08.923Z,84.19
2023-04-02T00:28:19.726Z,84.45
2023-04-02T00:31:23.517Z,85.15
2023-04-02T00:34:37.904Z,85.54
2023-04-02T00:37:42.390Z,85.46
2023-04-02T00:40:46.448Z,85.92
2023-04-02T00:43:54.776Z,85.86
2023-04-02T00:46:58.150Z,86.20
2023-04-02T00:50:23.134Z,86.04
2023-04-02T00:53:28.593Z,86.47
2023-04-02T00:56:41.241Z,86.02
2023-04-02T00:59:54.832Z,86.63
2023-04-02T01:03:17.830Z,86.39
2023-04-02T01:06:21.187Z,86.29
2023-04-02T01:09:47.247Z,86.53
2023-04-02T01:13:07.790Z,87.38
2023-04-02T01:16:26.096Z,86.72
2023-04-02T01:19:54.028Z,86.86
2023-04-02T01:23:13.564Z,87.47
2023-04-02T01:26:28.591Z,86.97
2023-04-02T01:29:34.352Z,87.13
2023-04-02T01:32:37.621Z,86.54
2023-04-02T01:35:43.823Z,87.12
2023-04-02T01:38:54.141Z,86.83
2023-04-02T01:42:09.937Z,87.36
2023-04-02T01:45:18.050Z,87.00
2023-04-02T01:48:27.603Z,87.12
2023-04-02T01:51:34.968Z,87.18
2023-04-02T01:54:38.141Z,87.21
2023-04-02T01:57:42.834Z,87.24
2023-04-02T02:00:52.490Z,86.90
2023-04-02T02:03:55.935Z,86.97
2023-04-02T02:07:02.364Z,87.23
2023-04-02T02:10:05.821Z,87.42
2023-04-02T02:13:14.998Z,87.50
2023-04-02T02:16:18.379Z,88.02
2023-04-02T02:19:37.655Z,88.96
2023-04-02T02:22:46.681Z,88.93
2023-04-02T02:25:49.755Z,88.52
2023-04-02T02:28:55.648Z,89.31
2023-04-02T02:31:59.404Z,89.24
2023-04-02T02:35:06.907Z,89.04
2023-04-02T02:38:26.394Z,88.48
2023-04-02T02:41:35.929Z,88.48
2023-04-02T02:44:42.789Z,88.88
2023-04-02T02:47:46.059Z,88.87
2023-04-02T02:50:49.971Z,89.08
2023-04-02T02:54:02.256Z,89.25
2023-04-02T02:57:08.548Z,89.99
2023-04-02T03:00:12.097Z,90.42
2023-04-02T03:03:22.349Z,91.52
2023-04-02T03:06:25.591Z,91.90
2023-04-02T03:09:52.490Z,91.96
2023-04-02T03:13:02.578Z,92.93
2023-04-02T03:16:26.540Z,93.66
2023-04-02T03:19:39.145Z,93.85
2023-04-02T03:22:47.502Z,94.36
2023-04-02T03:26:08.625Z,94.35
2023-04-02T03:29:18.319Z,94.99
2023-04-02T03:32:24.409Z,94.61
2023-04-02T03:35:58.857Z,94.81
2023-04-02T03:39:06.831Z,95.56
2023-04-02T03:42:30.915Z,95.63
2023-04-02T03:45:40.867Z,96.12
2023-04-02T03:48:50.513Z,96.38
2023-04-02T03:51:55.664Z,95.97
2023-04-02T03:55:00.568Z,96.29
2023-04-02T03:58:19.400Z,96.87
2023-04-02T04:01:34.764Z,96.57
2023-04-02T04:04:41.020Z,96.38
2023-04-02T04:07:44.241Z,95.87
2023-04-02T04:10:52.111Z,95.91
2023-04-02T04:14:03.648Z,95.62
2023-04-02T04:17:14.280Z,95.44
2023-04-02T04:20:22.318Z,95.07
2023-04-02T04:23:37.105Z,94.75
2023-04-02T04:26:42.197Z,95.74
2023-04-02T04:29:52.056Z,95.12
2023-04-02T04:33:02.232Z,95.53
2023-04-02T04:36:05.521Z,95.04
2023-04-02T04:39:21.885Z,94.84
2023-04-02T04:42:27.849Z,94.61
2023-04-02T04:45:43.875Z,94.21
2023-04-02T04:49:05.705Z,95.75
2023-04-02T04:52:19.737Z,94.97
2023-04-02T04:55:42.966Z,95.41
2023-04-02T04:58:57.335Z,94.61
2023-04-02T05:05:31.499Z,94.52
2023-04-02T05:08:36.820Z,96.13
2023-04-02T05:11:46.366Z,95.11
2023-04-02T05:14:57.742Z,95.58
2023-04-02T05:18:27.514Z,95.48
2023-04-02T05:21:45.084Z,93.48
2023-04-02T05:25:03.058Z,93.10
2023-04-02T05:28:31.104Z,93.09
2023-04-02T05:31:59.181Z,92.04
2023-04-02T05:35:05.677Z,91.28
2023-04-02T05:38:08.546Z,91.11
2023-04-02T05:41:42.487Z,90.45
2023-04-02T05:45:00.971Z,90.58
2023-04-02T05:48:12.536Z,89.84
2023-04-02T05:51:21.330Z,89.11
2023-04-02T05:54:30.540Z,89.21
2023-04-02T05:57:45.850Z,88.97
2023-04-02T06:01:03.053Z,88.75
2023-04-02T06:04:08.034Z,89.27
2023-04-02T06:07:16.043Z,89.02
2023-04-02T06:10:26.345Z,88.58
2023-04-02T06:13:29.644Z,88.41
2023-04-02T06:16:34.611Z,87.62
2023-04-02T06:19:38.778Z,88.19
2023-04-02T06:22:42.447Z,89.92
2023-04-02T06:25:56.479Z,89.82
2023-04-02T06:29:39.737Z,89.54
2023-04-02T06:32:42.691Z,89.54
2023-04-02T06:35:48.897Z,88.85
2023-04-02T06:38:52.649Z,89.73
2023-04-02T06:42:01.803Z,90.69
2023-04-02T06:45:05.346Z,90.62
2023-04-02T06:48:16.280Z,90.89
2023-04-02T06:51:21.274Z,90.99
2023-04-02T06:54:24.116Z,90.16
2023-04-02T06:57:28.536Z,90.88
2023-04-02T07:00:37.110Z,90.90
2023-04-02T07:03:40.297Z,91.39
2023-04-02T07:06:43.102Z,89.43
2023-04-02T07:09:46.024Z,89.53
2023-04-02T07:12:50.504Z,90.64
2023-04-02T07:15:56.783Z,89.12
2023-04-02T07:19:00.656Z,88.07
2023-04-02T07:22:03.357Z,87.24
2023-04-02T07:25:06.702Z,87.34
2023-04-02T07:28:09.580Z,87.76
2023-04-02T07:31:23.688Z,87.44
2023-04-02T07:34:29.505Z,86.12
2023-04-02T07:37:32.423Z,86.03
2023-04-02T07:40:35.321Z,81.20
2023-04-02T07:43:42.351Z,83.08
2023-04-02T07:46:45.225Z,83.12
2023-04-02T07:49:47.953Z,83.32
2023-04-02T07:52:50.985Z,84.22
2023-04-02T07:55:54.201Z,84.41
2023-04-02T07:59:00.048Z,83.43
2023-04-02T08:02:03.074Z,84.40
2023-04-02T08:05:07.063Z,82.61
2023-04-02T08:08:09.811Z,83.30
2023-04-02T08:11:12.696Z,83.09
2023-04-02T08:14:15.771Z,82.45
2023-04-02T08:17:18.921Z,82.20
2023-04-02T08:20:22.922Z,82.07
2023-04-02T08:23:26.360Z,81.34
2023-04-02T08:26:29.092Z,79.50
2023-04-02T08:29:32.644Z,77.75
2023-04-02T08:32:35.876Z,77.48
2023-04-02T08:35:39.112Z,75.66
2023-04-02T08:38:42.650Z,76.76
2023-04-02T08:42:07.144Z,75.75
2023-04-02T08:45:32.864Z,73.71
2023-04-02T08:48:40.796Z,75.11
2023-04-02T08:51:46.757Z,76.90
2023-04-02T08:54:50.402Z,77.02
2023-04-02T08:58:13.860Z,76.65
2023-04-02T09:01:20.844Z,75.54
2023-04-02T09:04:25.408Z,75.07
2023-04-02T09:07:28.795Z,77.44
2023-04-02T09:10:40.292Z,77.00
2023-04-02T09:13:49.333Z,77.27
2023-04-02T09:16:56.552Z,77.73
2023-04-02T09:20:13.554Z,76.46
2023-04-02T09:23:22.469Z,75.86
2023-04-02T09:26:32.338Z,76.47
2023-04-02T09:29:50.255Z,76.75
2023-04-02T09:32:58.924Z,76.56
2023-04-02T09:36:01.834Z,76.93
2023-04-02T09:39:19.052Z,75.60
2023-04-02T09:42:36.504Z,75.59
2023-04-02T09:45:40.398Z,75.61
2023-04-02T09:49:01.579Z,74.91
2023-04-02T09:52:11.869Z,75.16
2023-04-02T09:55:15.634Z,74.22
2023-04-02T09:58:18.796Z,75.75
2023-04-02T10:01:39.442Z,76.52
2023-04-02T10:04:49.959Z,76.33
2023-04-02T10:07:54.343Z,76.92
2023-04-02T10:11:00.168Z,75.70
2023-04-02T10:14:11.205Z,72.81
2023-04-02T10:17:33.435Z,73.75
2023-04-02T10:20:48.545Z,72.50
2023-04-02T10:23:55.279Z,72.41
2023-04-02T10:27:06.930Z,73.16
2023-04-02T10:30:21.479Z,74.63
2023-04-02T10:33:34.718Z,73.34
2023-04-02T10:36:40.742Z,72.06
2023-04-02T10:39:44.927Z,69.24
2023-04-02T10:43:27.581Z,69.25
2023-04-02T10:46:39.624Z,69.62
2023-04-02T10:49:50.834Z,65.42
2023-04-02T10:53:16.486Z,64.11
2023-04-02T10:56:19.566Z,61.45
2023-04-02T10:59:23.680Z,63.74
2023-04-02T11:02:32.202Z,68.04
2023-04-02T11:05:48.182Z,68.53
2023-04-02T11:08:58.411Z,68.90
2023-04-02T11:12:02.232Z,66.04
2023-04-02T11:15:15.363Z,66.00
2023-04-02T11:18:39.199Z,67.82
2023-04-02T11:21:57.889Z,70.67
2023-04-02T11:25:02.205Z,69.19
2023-04-02T11:28:27.914Z,68.73
2023-04-02T11:31:30.824Z,68.17
2023-04-02T11:34:46.299Z,67.99
2023-04-02T11:37:49.967Z,67.71
2023-04-02T11:40:56.912Z,67.25
2023-04-02T11:44:02.984Z,69.66
2023-04-02T11:47:35.276Z,69.04
2023-04-02T11:50:40.722Z,68.53
2023-04-02T11:53:43.787Z,69.87
2023-04-02T11:56:55.491Z,68.75
2023-04-02T12:00:07.044Z,61.13
2023-04-02T12:03:30.074Z,60.06
2023-04-02T12:06:47.224Z,61.62
2023-04-02T12:09:54.053Z,57.28
2023-04-02T12:12:56.930Z,62.35
2023-04-02T12:15:59.757Z,65.50
2023-04-02T12:19:02.786Z,64.69
2023-04-02T12:22:06.200Z,64.60
2023-04-02T12:25:21.925Z,61.93
2023-04-02T12:28:28.943Z,59.97
2023-04-02T12:31:33.780Z,66.50
2023-04-02T12:34:36.637Z,68.51
2023-04-02T12:37:39.551Z,70.64
2023-04-02T12:40:52.319Z,73.37
2023-04-02T12:44:21.475Z,75.41
2023-04-02T12:47:24.495Z,76.66
2023-04-02T12:50:27.380Z,76.20
2023-04-02T12:53:34.843Z,73.26
2023-04-02T12:56:37.706Z,73.22
2023-04-02T12:59:44.659Z,75.89
2023-04-02T13:02:52.604Z,76.14
2023-04-02T13:05:57.196Z,75.37
2023-04-02T13:09:02.038Z,75.57
2023-04-02T13:12:05.191Z,75.88
2023-04-02T13:15:18.854Z,76.25
2023-04-02T13:18:23.115Z,78.58
2023-04-02T13:21:30.258Z,77.08
2023-04-02T13:24:33.984Z,75.79
2023-04-02T13:27:36.925Z,75.96
2023-04-02T13:30:40.324Z,74.03
2023-04-02T13:33:43.550Z,74.42
2023-04-02T13:36:47.391Z,80.26
2023-04-02T13:39:50.248Z,84.92
2023-04-02T13:42:52.991Z,88.98
2023-04-02T13:45:57.982Z,92.91
2023-04-02T13:49:01.388Z,95.16
2023-04-02T13:52:05.566Z,94.71
2023-04-02T13:55:10.457Z,96.21
2023-04-02T13:58:13.395Z,96.93
2023-04-02T14:01:16.239Z,96.73
2023-04-02T14:04:22.919Z,98.80
2023-04-02T14:08:05.162Z,100.00
2023-04-02T14:11:20.200Z,100.00
2023-04-02T14:14:27.024Z,99.78
2023-04-02T14:17:47.800Z,99.56
2023-04-02T14:21:03.913Z,100.00
2023-04-02T14:24:20.085Z,99.23
2023-04-02T14:27:29.173Z,100.00
2023-04-02T14:31:13.063Z,99.96
2023-04-02T14:34:34.161Z,100.00
2023-04-02T14:38:05.865Z,100.00
2023-04-02T14:41:39.796Z,100.00
2023-04-02T14:44:58.941Z,100.00
2023-04-02T14:48:07.664Z,100.00
2023-04-02T14:51:40.970Z,97.44
2023-04-02T14:54:53.329Z,95.41
2023-04-02T14:57:56.706Z,89.71
2023-04-02T15:01:15.565Z,82.86
2023-04-02T15:04:22.622Z,85.50
2023-04-02T15:07:29.803Z,88.06
2023-04-02T15:10:36.277Z,84.11
2023-04-02T15:13:45.658Z,84.58
2023-04-02T15:16:48.583Z,82.77
2023-04-02T15:19:59.598Z,83.42
2023-04-02T15:23:14.310Z,79.16
2023-04-02T15:26:47.124Z,77.46
2023-04-02T15:30:09.180Z,70.42
2023-04-02T15:33:30.872Z,66.28
2023-04-02T15:36:36.983Z,62.72
2023-04-02T15:39:55.697Z,63.32
2023-04-02T15:43:16.691Z,59.51
2023-04-02T15:46:23.394Z,59.15
2023-04-02T15:49:38.475Z,57.89
2023-04-02T15:52:58.990Z,57.90
2023-04-02T15:56:26.652Z,56.42
2023-04-02T15:59:48.067Z,56.84
2023-04-02T16:03:17.537Z,57.38
2023-04-02T16:06:29.860Z,56.23
2023-04-02T16:10:05.149Z,57.50
2023-04-02T16:13:25.774Z,57.77
2023-04-02T16:16:33.946Z,60.59
2023-04-02T16:19:45.352Z,62.44
2023-04-02T16:23:13.279Z,66.17
2023-04-02T16:27:02.246Z,67.20
2023-04-02T16:30:05.896Z,67.80
2023-04-02T16:33:22.313Z,68.13
2023-04-02T16:36:28.097Z,69.58
2023-04-02T16:39:35.194Z,70.58
2023-04-02T16:42:52.201Z,70.94
2023-04-02T16:46:13.786Z,72.18
2023-04-02T16:50:00.515Z,72.46
2023-04-02T16:53:24.623Z,73.53
2023-04-02T16:56:56.184Z,73.26
2023-04-02T17:00:25.275Z,74.10
2023-04-02T17:04:00.980Z,75.27
2023-04-02T17:07:15.945Z,74.79
2023-04-02T17:10:39.924Z,74.98
2023-04-02T17:13:46.490Z,75.85
2023-04-02T17:16:53.403Z,75.11
2023-04-02T17:19:58.479Z,75.83
2023-04-02T17:23:03.626Z,75.67
2023-04-02T17:26:09.558Z,73.91
2023-04-02T17:29:18.135Z,74.37
2023-04-02T17:32:25.836Z,75.41
2023-04-02T17:35:33.200Z,75.56
2023-04-02T17:39:05.974Z,76.34
2023-04-02T17:42:16.387Z,76.98
2023-04-02T17:45:25.582Z,77.12
2023-04-02T17:48:49.014Z,76.31
2023-04-02T17:52:15.824Z,76.72
2023-04-02T17:55:41.135Z,77.71
2023-04-02T17:58:44.290Z,77.85
2023-04-02T18:01:53.993Z,78.47
2023-04-02T18:05:25.289Z,78.43
2023-04-02T18:09:04.748Z,78.02
2023-04-02T18:12:49.337Z,78.54
2023-04-02T18:16:34.502Z,79.22
2023-04-02T18:19:46.523Z,78.95
2023-04-02T18:23:15.729Z,78.74
2023-04-02T18:26:28.087Z,78.54
2023-04-02T18:29:46.174Z,78.67
2023-04-02T18:33:06.498Z,78.81
2023-04-02T18:36:21.964Z,79.15
2023-04-02T18:39:33.472Z,79.47
2023-04-02T18:42:43.557Z,79.92
2023-04-02T18:46:13.160Z,79.75
2023-04-02T18:49:38.075Z,79.37
2023-04-02T18:52:41.714Z,80.65
2023-04-02T18:55:56.008Z,80.93
2023-04-02T18:59:19.542Z,79.84
2023-04-02T19:02:26.062Z,80.92
2023-04-02T19:05:35.353Z,80.84
2023-04-02T19:08:48.305Z,80.56
2023-04-02T19:11:53.316Z,80.80
2023-04-02T19:15:00.798Z,80.00
2023-04-02T19:18:16.538Z,80.91
2023-04-02T19:21:58.905Z,80.97
2023-04-02T19:25:20.290Z,81.14
2023-04-02T19:28:48.431Z,80.85
2023-04-02T19:31:58.542Z,80.58
2023-04-02T19:35:17.657Z,81.50
2023-04-02T19:38:36.311Z,81.16
2023-04-02T19:41:53.872Z,80.56
2023-04-02T19:44:57.331Z,80.83
2023-04-02T19:48:04.182Z,81.36
2023-04-02T19:51:07.381Z,80.64
2023-04-02T19:54:11.038Z,79.42
2023-04-02T19:57:15.883Z,80.01
2023-04-02T20:00:22.102Z,79.62
2023-04-02T20:03:27.672Z,79.61
2023-04-02T20:06:31.871Z,78.35
2023-04-02T20:09:34.826Z,78.65
2023-04-02T20:12:37.902Z,77.67
2023-04-02T20:15:41.709Z,77.60
2023-04-02T20:18:48.872Z,77.94
2023-04-02T20:21:52.357Z,77.62
2023-04-02T20:24:58.318Z,78.54
2023-04-02T20:28:04.003Z,79.07
2023-04-02T20:31:09.933Z,79.19
2023-04-02T20:34:13.077Z,80.75
2023-04-02T20:37:16.646Z,80.95
2023-04-02T20:40:19.465Z,82.08
2023-04-02T20:43:22.839Z,81.69
2023-04-02T20:46:26.594Z,81.53
2023-04-02T20:49:29.442Z,81.97
2023-04-02T20:52:33.451Z,81.81
2023-04-02T20:55:53.752Z,81.50
2023-04-02T20:58:56.554Z,82.10
2023-04-02T21:01:59.337Z,81.17
2023-04-02T21:05:02.087Z,81.19
2023-04-02T21:08:05.035Z,80.54
2023-04-02T21:11:08.848Z,79.70
2023-04-02T21:14:11.868Z,79.36
2023-04-02T21:17:16.208Z,79.97
2023-04-02T21:20:19.050Z,79.77
2023-04-02T21:23:21.768Z,79.56
2023-04-02T21:26:24.579Z,79.35
2023-04-02T21:29:30.221Z,79.40
2023-04-02T21:32:33.393Z,79.60
2023-04-02T21:35:36.320Z,79.79
2023-04-02T21:38:47.600Z,80.09
2023-04-02T21:41:52.164Z,80.09
2023-04-02T21:44:56.178Z,79.50
2023-04-02T21:48:02.083Z,79.40
2023-04-02T21:51:07.366Z,79.89
2023-04-02T21:54:10.478Z,79.85
2023-04-02T21:57:13.577Z,79.63
2023-04-02T22:00:16.786Z,79.92
2023-04-02T22:03:29.133Z,80.72
2023-04-02T22:06:40.894Z,81.08
2023-04-02T22:09:43.910Z,79.82
2023-04-02T22:12:46.854Z,79.71
2023-04-02T22:15:49.694Z,78.82
2023-04-02T22:18:53.863Z,79.57
2023-04-02T22:21:57.066Z,79.25
2023-04-02T22:25:00.825Z,79.57
2023-04-02T22:28:03.788Z,79.98
2023-04-02T22:31:19.561Z,80.81
2023-04-02T22:34:22.508Z,81.41
2023-04-02T22:37:25.591Z,81.97
2023-04-02T22:40:29.879Z,81.66
2023-04-02T22:43:32.924Z,82.64
2023-04-02T22:46:38.594Z,82.04
2023-04-02T22:49:41.492Z,82.70
2023-04-02T22:52:44.832Z,82.10
2023-04-02T22:55:48.915Z,82.76
2023-04-02T22:58:51.775Z,82.71
2023-04-02T23:01:55.109Z,82.21
2023-04-02T23:04:58.227Z,83.03
2023-04-02T23:08:01.237Z,83.02
2023-04-02T23:11:05.611Z,83.13
2023-04-02T23:14:08.395Z,82.73
2023-04-02T23:17:11.274Z,83.79
2023-04-02T23:20:14.055Z,83.18
2023-04-02T23:23:16.762Z,84.02
2023-04-02T23:26:22.247Z,84.47
2023-04-02T23:29:25.027Z,84.08
2023-04-02T23:32:27.945Z,84.67
2023-04-02T23:35:30.829Z,84.37
2023-04-02T23:38:33.632Z,85.20
2023-04-02T23:41:37.836Z,84.74
2023-04-02T23:44:40.850Z,84.56
2023-04-02T23:47:43.736Z,84.56
2023-04-02T23:50:46.680Z,85.24
2023-04-02T23:53:50.741Z,85.31
2023-04-02T23:56:53.425Z,85.00
2023-04-02T23:59:56.161Z,85.47
